Time;durP1;ratioP1;P1;durP2;ratioP2;P2;SDS_P1;SDS_P2;PMS_P1;PMS_P2;Temp;Humidity;BMP_temperature;BMP_pressure;BME280_temperature;BME280_humidity;BME280_pressure;Samples;Min_cycle;Max_cycle;Signal;HPM_P1;HPM_P2
2023/11/14 00:02:27;;;;;;;;;3.25;3.25;;;;;;;;5045584;28;8780;-83
2023/11/14 00:04:55;;;;;;;;;4.75;3.25;;;;;;;;5045274;28;8852;-83
2023/11/14 00:07:22;;;;;;;;;3.50;3.50;;;;;;;;5051348;28;8840;-82
2023/11/14 00:09:51;;;;;;;;;4.00;3.00;;;;;;;;5052856;28;8848;-82
2023/11/14 00:12:19;;;;;;;;;5.00;1.25;;;;;;;;5051177;28;8844;-82
2023/11/14 00:14:46;;;;;;;;;6.00;4.00;;;;;;;;5052149;28;8852;-82
2023/11/14 00:17:14;;;;;;;;;3.00;3.00;;;;;;;;5051415;28;8860;-82
2023/11/14 00:19:42;;;;;;;;;3.25;3.25;;;;;;;;5051551;28;8840;-82
2023/11/14 00:22:14;;;;;;;;;4.25;3.00;;;;;;;;5051681;28;8840;-83
2023/11/14 00:24:41;;;;;;;;;5.75;4.00;;;;;;;;5052570;28;8856;-83
2023/11/14 00:27:09;;;;;;;;;4.75;3.00;;;;;;;;5052385;28;8848;-82
2023/11/14 00:29:37;;;;;;;;;3.00;3.00;;;;;;;;5054642;28;8844;-82
2023/11/14 00:32:05;;;;;;;;;6.00;4.00;;;;;;;;5046341;28;8784;-82
2023/11/14 00:34:32;;;;;;;;;4.75;3.00;;;;;;;;5046394;28;9685;-81
2023/11/14 00:37:00;;;;;;;;;6.50;3.75;;;;;;;;5045004;28;8848;-83
2023/11/14 00:39:31;;;;;;;;;4.75;3.75;;;;;;;;5055164;28;8832;-83
2023/11/14 00:42:03;;;;;;;;;7.00;4.50;;;;;;;;5056885;28;8867;-83
2023/11/14 00:44:30;;;;;;;;;3.00;3.00;;;;;;;;5056887;28;8852;-82
2023/11/14 00:47:00;;;;;;;;;6.50;3.00;;;;;;;;5051566;28;8844;-81
2023/11/14 00:49:27;;;;;;;;;2.25;2.25;;;;;;;;5046776;28;8856;-81
2023/11/14 00:51:57;;;;;;;;;4.00;4.00;;;;;;;;5048140;28;8852;-82
2023/11/14 00:54:25;;;;;;;;;2.75;2.75;;;;;;;;5054171;28;8840;-82
2023/11/14 00:56:54;;;;;;;;;2.25;2.00;;;;;;;;5052550;28;8845;-82
2023/11/14 00:59:21;;;;;;;;;5.50;4.75;;;;;;;;5043069;28;9611;-82
2023/11/14 01:01:48;;;;;;;;;3.25;2.50;;;;;;;;5053275;28;8788;-82
2023/11/14 01:04:18;;;;;;;;;2.75;2.75;;;;;;;;5073884;28;8939;-82
2023/11/14 01:06:46;;;;;;;;;7.00;3.75;;;;;;;;5066535;28;8983;-82
2023/11/14 01:09:13;;;;;;;;;3.00;2.00;;;;;;;;5050253;28;8901;-83
2023/11/14 01:11:41;;;;;;;;;3.25;3.25;;;;;;;;5050971;28;8860;-81
2023/11/14 01:14:11;;;;;;;;;6.75;2.00;;;;;;;;5049520;28;8840;-82
2023/11/14 01:16:39;;;;;;;;;5.00;2.75;;;;;;;;5050519;28;8848;-81
2023/11/14 01:19:06;;;;;;;;;5.75;4.00;;;;;;;;5049989;28;8836;-82
2023/11/14 01:21:38;;;;;;;;;3.50;2.00;;;;;;;;5050164;28;8864;-82
2023/11/14 01:24:06;;;;;;;;;5.50;4.50;;;;;;;;5049597;28;8860;-82
2023/11/14 01:26:35;;;;;;;;;3.00;3.00;;;;;;;;5049975;28;8852;-82
2023/11/14 01:29:05;;;;;;;;;2.25;2.25;;;;;;;;5049182;28;8840;-82
2023/11/14 01:31:34;;;;;;;;;4.75;3.75;;;;;;;;5050324;28;8838;-81
2023/11/14 01:34:03;;;;;;;;;4.00;3.25;;;;;;;;5036113;28;8852;-82
2023/11/14 01:36:30;;;;;;;;;7.25;4.75;;;;;;;;5051418;28;8929;-83
2023/11/14 01:39:04;;;;;;;;;4.75;2.25;;;;;;;;5049638;28;8888;-82
2023/11/14 01:41:31;;;;;;;;;7.25;4.25;;;;;;;;5049106;28;8851;-81
2023/11/14 01:44:02;;;;;;;;;6.50;4.00;;;;;;;;5050340;28;8871;-82
2023/11/14 01:46:30;;;;;;;;;3.25;2.00;;;;;;;;5049474;28;8979;-82
2023/11/14 01:49:00;;;;;;;;;4.00;4.00;;;;;;;;5050018;28;8852;-80
2023/11/14 01:51:28;;;;;;;;;4.00;3.00;;;;;;;;5049656;28;8848;-82
2023/11/14 01:53:57;;;;;;;;;4.50;4.00;;;;;;;;5050168;28;8844;-83
2023/11/14 01:56:25;;;;;;;;;5.50;3.25;;;;;;;;5038904;28;8996;-82
2023/11/14 01:58:52;;;;;;;;;4.00;2.50;;;;;;;;5048651;28;8852;-81
2023/11/14 02:01:22;;;;;;;;;6.25;3.00;;;;;;;;5048216;28;9555;-82
2023/11/14 02:03:49;;;;;;;;;4.00;2.50;;;;;;;;5050856;28;8874;-80
2023/11/14 02:06:18;;;;;;;;;5.25;3.00;;;;;;;;5036887;28;8959;-82
2023/11/14 02:08:45;;;;;;;;;6.00;4.25;;;;;;;;5049472;28;8889;-81
2023/11/14 02:11:13;;;;;;;;;4.75;1.50;;;;;;;;5049026;28;8963;-83
2023/11/14 02:13:43;;;;;;;;;3.00;3.00;;;;;;;;5050262;28;8843;-81
2023/11/14 02:16:10;;;;;;;;;8.00;4.75;;;;;;;;5037374;28;8852;-82
2023/11/14 02:18:38;;;;;;;;;2.50;2.50;;;;;;;;5051762;28;9008;-82
2023/11/14 02:21:05;;;;;;;;;4.00;4.00;;;;;;;;5049487;28;8950;-82
2023/11/14 02:23:37;;;;;;;;;5.00;4.00;;;;;;;;5053923;28;8860;-83
2023/11/14 02:26:06;;;;;;;;;6.00;3.25;;;;;;;;5053774;28;8864;-82
2023/11/14 02:28:33;;;;;;;;;3.25;3.25;;;;;;;;5053456;28;8954;-81
2023/11/14 02:31:03;;;;;;;;;5.75;2.75;;;;;;;;5052921;28;8890;-83
2023/11/14 02:33:37;;;;;;;;;7.00;2.75;;;;;;;;5055464;28;8871;-84
2023/11/14 02:36:06;;;;;;;;;2.25;2.25;;;;;;;;5052181;28;8977;-83
2023/11/14 02:38:33;;;;;;;;;2.50;2.50;;;;;;;;5049647;28;8998;-81
2023/11/14 02:41:00;;;;;;;;;3.25;2.00;;;;;;;;5051241;28;8860;-82
2023/11/14 02:43:29;;;;;;;;;5.00;2.50;;;;;;;;5052468;28;8848;-81
2023/11/14 02:45:56;;;;;;;;;5.50;2.50;;;;;;;;5052291;28;8868;-82
2023/11/14 02:48:23;;;;;;;;;6.25;3.25;;;;;;;;5048054;28;9606;-82
2023/11/14 02:50:53;;;;;;;;;7.00;3.75;;;;;;;;5049105;28;8855;-82
2023/11/14 02:53:22;;;;;;;;;4.75;3.50;;;;;;;;5037277;28;8874;-81
2023/11/14 02:55:49;;;;;;;;;2.00;2.00;;;;;;;;5048452;28;8856;-81
2023/11/14 02:58:18;;;;;;;;;6.00;3.00;;;;;;;;5027054;28;9608;-81
2023/11/14 03:00:48;;;;;;;;;8.75;4.25;;;;;;;;5040324;28;8755;-82
2023/11/14 03:03:17;;;;;;;;;5.50;3.50;;;;;;;;5047646;28;8884;-81
2023/11/14 03:05:45;;;;;;;;;2.00;2.00;;;;;;;;5035045;28;8862;-82
2023/11/14 03:08:13;;;;;;;;;4.75;3.00;;;;;;;;5048472;28;8836;-81
2023/11/14 03:10:40;;;;;;;;;5.75;3.00;;;;;;;;5047101;28;8962;-80
2023/11/14 03:13:08;;;;;;;;;2.75;2.75;;;;;;;;5055408;28;8858;-82
2023/11/14 03:15:36;;;;;;;;;4.25;4.00;;;;;;;;5063027;28;9004;-82
2023/11/14 03:18:05;;;;;;;;;2.75;2.75;;;;;;;;5046986;28;8848;-83
2023/11/14 03:20:32;;;;;;;;;4.00;4.00;;;;;;;;5054961;28;9615;-82
2023/11/14 03:23:02;;;;;;;;;2.00;2.00;;;;;;;;5047357;28;8892;-82
2023/11/14 03:25:29;;;;;;;;;4.00;2.25;;;;;;;;5048851;28;8848;-83
2023/11/14 03:27:58;;;;;;;;;5.00;4.25;;;;;;;;5052323;28;8892;-82
2023/11/14 03:30:26;;;;;;;;;4.50;2.50;;;;;;;;5072598;28;8708;-80
2023/11/14 03:32:54;;;;;;;;;3.00;3.00;;;;;;;;5065182;28;8820;-83
2023/11/14 03:35:22;;;;;;;;;2.50;2.50;;;;;;;;5052209;28;8872;-81
2023/11/14 03:37:50;;;;;;;;;2.75;2.25;;;;;;;;5047883;28;8836;-81
2023/11/14 03:40:17;;;;;;;;;7.00;2.75;;;;;;;;5038518;28;8874;-82
2023/11/14 03:42:44;;;;;;;;;3.00;2.00;;;;;;;;5046446;28;8837;-82
2023/11/14 03:45:12;;;;;;;;;6.25;3.00;;;;;;;;5043145;28;8836;-81
2023/11/14 03:47:39;;;;;;;;;6.00;3.25;;;;;;;;5048713;28;8864;-83
2023/11/14 03:50:09;;;;;;;;;6.00;3.75;;;;;;;;5048715;28;8865;-82
2023/11/14 03:52:39;;;;;;;;;5.75;4.00;;;;;;;;5048360;28;8868;-81
2023/11/14 03:55:07;;;;;;;;;3.00;3.00;;;;;;;;5042317;28;9655;-83
2023/11/14 03:57:34;;;;;;;;;3.75;3.75;;;;;;;;5042896;28;8987;-82
2023/11/14 04:00:04;;;;;;;;;0.00;0.00;;;;;;;;5031942;28;8834;-82
2023/11/14 04:02:32;;;;;;;;;4.00;2.50;;;;;;;;5013979;28;8856;-82
2023/11/14 04:05:00;;;;;;;;;3.00;1.00;;;;;;;;5021507;28;8844;-83
2023/11/14 04:07:27;;;;;;;;;3.00;3.00;;;;;;;;5007721;28;8986;-83
2023/11/14 04:09:56;;;;;;;;;3.00;2.25;;;;;;;;5031825;28;8862;-82
2023/11/14 04:12:25;;;;;;;;;3.00;1.75;;;;;;;;5032951;28;8941;-83
2023/11/14 04:14:53;;;;;;;;;4.00;2.25;;;;;;;;5034824;28;8842;-82
2023/11/14 04:17:20;;;;;;;;;6.25;3.00;;;;;;;;5022953;28;8881;-82
2023/11/14 04:19:47;;;;;;;;;3.00;1.00;;;;;;;;5032663;28;8850;-81
2023/11/14 04:22:15;;;;;;;;;2.25;2.25;;;;;;;;5031827;28;8811;-82
2023/11/14 04:24:42;;;;;;;;;4.75;3.00;;;;;;;;5019169;28;8838;-82
2023/11/14 04:27:11;;;;;;;;;3.25;3.25;;;;;;;;5032671;28;9626;-84
2023/11/14 04:29:38;;;;;;;;;4.75;3.50;;;;;;;;5024122;28;8983;-82
2023/11/14 04:32:06;;;;;;;;;4.00;2.00;;;;;;;;5029828;28;8809;-83
2023/11/14 04:34:36;;;;;;;;;4.50;3.00;;;;;;;;5055596;28;8864;-82
2023/11/14 04:37:09;;;;;;;;;4.25;2.25;;;;;;;;5051987;28;8868;-83
2023/11/14 04:39:37;;;;;;;;;4.00;2.25;;;;;;;;5041851;28;9600;-83
2023/11/14 04:42:07;;;;;;;;;3.75;2.50;;;;;;;;5049406;28;8844;-83
2023/11/14 04:44:36;;;;;;;;;5.75;2.50;;;;;;;;5032847;28;8836;-81
2023/11/14 04:47:05;;;;;;;;;3.00;2.00;;;;;;;;5049191;28;9712;-82
2023/11/14 04:49:33;;;;;;;;;3.75;2.25;;;;;;;;5049938;28;8890;-82
2023/11/14 04:52:00;;;;;;;;;2.25;2.00;;;;;;;;5043793;28;8838;-84
2023/11/14 04:54:29;;;;;;;;;9.50;4.00;;;;;;;;5044612;28;8982;-82
2023/11/14 04:56:59;;;;;;;;;3.00;0.25;;;;;;;;5049114;28;8856;-80
2023/11/14 04:59:26;;;;;;;;;3.50;3.50;;;;;;;;5032298;28;9595;-82
2023/11/14 05:01:55;;;;;;;;;3.00;3.00;;;;;;;;5045853;28;8930;-82
2023/11/14 05:04:23;;;;;;;;;5.75;2.50;;;;;;;;5050431;28;8852;-84
2023/11/14 05:06:50;;;;;;;;;4.00;3.75;;;;;;;;5050308;28;8926;-84
2023/11/14 05:09:18;;;;;;;;;2.75;2.75;;;;;;;;5039403;28;9001;-84
2023/11/14 05:11:45;;;;;;;;;4.67;4.67;;;;;;;;5050231;28;8918;-80
2023/11/14 05:14:12;;;;;;;;;1.50;1.00;;;;;;;;5048281;28;8910;-81
2023/11/14 05:16:40;;;;;;;;;2.75;2.00;;;;;;;;5050370;28;8848;-83
2023/11/14 05:19:11;;;;;;;;;3.75;2.50;;;;;;;;5050213;28;8910;-80
2023/11/14 05:21:38;;;;;;;;;5.50;3.75;;;;;;;;5050451;28;8868;-82
2023/11/14 05:24:07;;;;;;;;;4.50;1.25;;;;;;;;5049878;28;8951;-82
2023/11/14 05:26:34;;;;;;;;;1.75;1.75;;;;;;;;5050552;28;8852;-82
2023/11/14 05:29:01;;;;;;;;;4.25;4.25;;;;;;;;5049204;28;8832;-80
2023/11/14 05:31:33;;;;;;;;;3.25;2.00;;;;;;;;5049839;28;8827;-81
2023/11/14 05:34:01;;;;;;;;;2.00;2.00;;;;;;;;5048426;28;8955;-80
2023/11/14 05:36:32;;;;;;;;;5.50;3.00;;;;;;;;5049704;28;8864;-81
2023/11/14 05:39:03;;;;;;;;;5.00;3.00;;;;;;;;5037417;28;8987;-83
2023/11/14 05:41:31;;;;;;;;;5.00;2.00;;;;;;;;5050868;28;8979;-81
2023/11/14 05:44:08;;;;;;;;;3.00;3.00;;;;;;;;5049466;28;8895;-83
2023/11/14 05:46:35;;;;;;;;;2.50;2.00;;;;;;;;5046801;28;8906;-81
2023/11/14 05:49:04;;;;;;;;;4.25;2.00;;;;;;;;5030420;28;8915;-83
2023/11/14 05:51:36;;;;;;;;;6.00;3.25;;;;;;;;5047379;28;8968;-81
2023/11/14 05:54:04;;;;;;;;;4.75;3.00;;;;;;;;5053489;28;8947;-79
2023/11/14 05:56:32;;;;;;;;;3.50;2.00;;;;;;;;5055592;28;8844;-80
2023/11/14 05:59:00;;;;;;;;;10.50;2.25;;;;;;;;5048247;28;8864;-80
2023/11/14 06:01:37;;;;;;;;;4.75;2.00;;;;;;;;5059237;28;8912;-82
2023/11/14 06:04:07;;;;;;;;;3.25;1.25;;;;;;;;5065339;28;8860;-82
2023/11/14 06:06:37;;;;;;;;;5.75;2.75;;;;;;;;5064049;28;8828;-76
2023/11/14 06:09:04;;;;;;;;;2.00;2.00;;;;;;;;5061374;28;8868;-77
2023/11/14 06:11:31;;;;;;;;;2.25;2.25;;;;;;;;5049870;28;8879;-79
2023/11/14 06:14:03;;;;;;;;;2.75;2.75;;;;;;;;5057318;28;8878;-78
2023/11/14 06:16:32;;;;;;;;;2.75;2.75;;;;;;;;5043550;28;8875;-78
2023/11/14 06:18:59;;;;;;;;;4.00;3.00;;;;;;;;5038369;28;8967;-78
2023/11/14 06:21:29;;;;;;;;;4.00;1.00;;;;;;;;5046747;28;8954;-79
2023/11/14 06:23:58;;;;;;;;;3.25;3.25;;;;;;;;5049226;28;8843;-78
2023/11/14 06:26:28;;;;;;;;;7.00;3.25;;;;;;;;5049857;28;8848;-79
2023/11/14 06:28:55;;;;;;;;;2.00;2.00;;;;;;;;5047795;28;8840;-80
2023/11/14 06:31:26;;;;;;;;;2.50;2.50;;;;;;;;5047713;28;8911;-79
2023/11/14 06:33:53;;;;;;;;;3.00;2.75;;;;;;;;5037310;28;8848;-78
2023/11/14 06:36:21;;;;;;;;;4.25;3.00;;;;;;;;5048501;28;8852;-80
2023/11/14 06:38:51;;;;;;;;;3.00;3.00;;;;;;;;5049244;28;8875;-80
2023/11/14 06:41:20;;;;;;;;;1.75;0.75;;;;;;;;5048417;28;8844;-79
2023/11/14 06:43:47;;;;;;;;;4.25;3.00;;;;;;;;5048348;28;8945;-79
2023/11/14 06:46:18;;;;;;;;;5.25;4.75;;;;;;;;5048087;28;8848;-79
2023/11/14 06:48:45;;;;;;;;;2.50;2.50;;;;;;;;5046711;28;8836;-79
2023/11/14 06:51:12;;;;;;;;;3.50;3.00;;;;;;;;5048543;28;8910;-80
2023/11/14 06:53:40;;;;;;;;;3.00;3.00;;;;;;;;5046083;28;8867;-79
2023/11/14 06:56:08;;;;;;;;;3.25;3.25;;;;;;;;5047147;28;8852;-80
2023/11/14 06:58:40;;;;;;;;;7.25;3.25;;;;;;;;5029631;28;8947;-79
2023/11/14 07:01:08;;;;;;;;;3.00;3.00;;;;;;;;5044179;28;8929;-80
2023/11/14 07:03:35;;;;;;;;;6.75;5.75;;;;;;;;5047068;28;8872;-79
2023/11/14 07:06:02;;;;;;;;;5.50;5.25;;;;;;;;5047275;28;8856;-79
2023/11/14 07:08:33;;;;;;;;;5.75;5.00;;;;;;;;5047610;28;8841;-80
2023/11/14 07:11:00;;;;;;;;;5.50;2.75;;;;;;;;5038922;28;8868;-79
2023/11/14 07:13:29;;;;;;;;;8.75;4.25;;;;;;;;5041570;28;8834;-79
2023/11/14 07:15:58;;;;;;;;;6.25;4.00;;;;;;;;5045466;28;8855;-79
2023/11/14 07:18:25;;;;;;;;;3.00;2.00;;;;;;;;5034004;28;9012;-78
2023/11/14 07:20:54;;;;;;;;;3.50;2.00;;;;;;;;5041416;28;8860;-82
2023/11/14 07:23:21;;;;;;;;;3.25;3.00;;;;;;;;5047579;28;8840;-79
2023/11/14 07:25:49;;;;;;;;;5.50;0.00;;;;;;;;5035185;28;8840;-78
2023/11/14 07:28:19;;;;;;;;;3.00;3.00;;;;;;;;5047893;28;8828;-78
2023/11/14 07:30:51;;;;;;;;;2.50;2.00;;;;;;;;5046458;28;8824;-75
2023/11/14 07:33:19;;;;;;;;;1.25;1.25;;;;;;;;5047629;28;8851;-76
2023/11/14 07:35:46;;;;;;;;;2.00;1.00;;;;;;;;5040928;28;9006;-78
2023/11/14 07:38:14;;;;;;;;;4.50;3.00;;;;;;;;5041903;28;8874;-79
2023/11/14 07:40:41;;;;;;;;;5.50;2.25;;;;;;;;5048207;28;9003;-77
2023/11/14 07:43:09;;;;;;;;;3.50;3.50;;;;;;;;5049431;28;8882;-80
2023/11/14 07:45:37;;;;;;;;;2.50;2.50;;;;;;;;5050763;28;8882;-78
2023/11/14 07:48:06;;;;;;;;;3.00;2.50;;;;;;;;5049113;28;8982;-78
2023/11/14 07:50:34;;;;;;;;;2.00;2.00;;;;;;;;5047226;28;8844;-78
2023/11/14 07:53:02;;;;;;;;;2.75;2.25;;;;;;;;5048497;28;8856;-79
2023/11/14 07:55:32;;;;;;;;;4.50;3.00;;;;;;;;5049025;28;8852;-77
2023/11/14 07:58:01;;;;;;;;;2.25;2.25;;;;;;;;5050295;28;8828;-78
2023/11/14 08:00:30;;;;;;;;;5.25;2.75;;;;;;;;5051969;28;8849;-78
2023/11/14 08:03:03;;;;;;;;;6.00;3.25;;;;;;;;5050789;28;8848;-79
2023/11/14 08:05:32;;;;;;;;;4.50;2.75;;;;;;;;5052157;28;9280;-78
2023/11/14 08:08:00;;;;;;;;;1.75;1.75;;;;;;;;5053126;28;8824;-78
2023/11/14 08:10:28;;;;;;;;;5.00;2.25;;;;;;;;5053562;28;8893;-79
2023/11/14 08:12:55;;;;;;;;;3.50;2.50;;;;;;;;5051792;28;8863;-78
2023/11/14 08:15:23;;;;;;;;;1.50;1.50;;;;;;;;5041850;28;8854;-78
2023/11/14 08:17:53;;;;;;;;;3.75;3.00;;;;;;;;5050646;28;8859;-79
2023/11/14 08:20:20;;;;;;;;;3.75;3.75;;;;;;;;5046155;28;8901;-78
2023/11/14 08:22:47;;;;;;;;;5.50;2.50;;;;;;;;5050421;28;9837;-78
2023/11/14 08:25:16;;;;;;;;;2.50;2.50;;;;;;;;5050959;28;8843;-79
2023/11/14 08:27:44;;;;;;;;;4.75;3.75;;;;;;;;5050442;28;8852;-80
2023/11/14 08:30:12;;;;;;;;;2.00;2.00;;;;;;;;5049389;28;8856;-84
2023/11/14 08:32:39;;;;;;;;;6.25;4.00;;;;;;;;5039796;28;8848;-82
2023/11/14 08:35:07;;;;;;;;;3.50;3.00;;;;;;;;5051744;28;8852;-82
2023/11/14 08:37:35;;;;;;;;;4.75;2.25;;;;;;;;5054495;28;8970;-78
2023/11/14 08:40:02;;;;;;;;;2.50;2.50;;;;;;;;5050203;28;9022;-79
2023/11/14 08:42:31;;;;;;;;;8.00;3.75;;;;;;;;5040321;28;8876;-80
2023/11/14 08:44:58;;;;;;;;;3.75;3.75;;;;;;;;5031501;28;8808;-80
2023/11/14 08:47:26;;;;;;;;;3.75;3.75;;;;;;;;5050145;28;9614;-81
2023/11/14 08:49:53;;;;;;;;;3.00;2.75;;;;;;;;5049314;28;8971;-82
2023/11/14 08:52:20;;;;;;;;;2.25;0.75;;;;;;;;5041319;28;8856;-82
2023/11/14 08:54:47;;;;;;;;;3.50;2.75;;;;;;;;5046689;28;8900;-82
2023/11/14 08:57:15;;;;;;;;;3.00;2.75;;;;;;;;5050639;28;8878;-82
2023/11/14 08:59:43;;;;;;;;;3.50;2.00;;;;;;;;5049355;28;8879;-82
2023/11/14 09:02:10;;;;;;;;;4.00;4.00;;;;;;;;5046779;28;8822;-81
2023/11/14 09:04:38;;;;;;;;;4.00;4.00;;;;;;;;5049786;28;8840;-80
2023/11/14 09:07:05;;;;;;;;;2.75;2.75;;;;;;;;5041827;28;8842;-81
2023/11/14 09:09:32;;;;;;;;;3.00;3.00;;;;;;;;5048509;28;8876;-79
2023/11/14 09:11:59;;;;;;;;;3.50;2.50;;;;;;;;5049804;28;8986;-82
2023/11/14 09:14:27;;;;;;;;;4.50;2.50;;;;;;;;5049898;28;8840;-78
2023/11/14 09:16:56;;;;;;;;;3.50;2.25;;;;;;;;5049869;28;8938;-79
2023/11/14 09:19:24;;;;;;;;;4.75;4.75;;;;;;;;5029601;28;8836;-81
2023/11/14 09:21:51;;;;;;;;;2.00;2.00;;;;;;;;5045437;28;8860;-81
2023/11/14 09:24:19;;;;;;;;;5.50;3.50;;;;;;;;5050226;28;8992;-79
2023/11/14 09:26:46;;;;;;;;;2.00;2.00;;;;;;;;5050728;28;8879;-80
2023/11/14 09:29:13;;;;;;;;;6.00;3.00;;;;;;;;5049383;28;8820;-82
2023/11/14 09:31:40;;;;;;;;;3.00;3.00;;;;;;;;5050708;28;8831;-80
2023/11/14 09:34:11;;;;;;;;;4.50;2.75;;;;;;;;5046197;28;8854;-81
2023/11/14 09:36:38;;;;;;;;;3.75;2.00;;;;;;;;5048493;28;8898;-80
2023/11/14 09:39:07;;;;;;;;;2.25;2.00;;;;;;;;5054197;28;8851;-80
2023/11/14 09:41:35;;;;;;;;;6.00;4.00;;;;;;;;5053590;28;8897;-80
2023/11/14 09:44:02;;;;;;;;;2.75;2.75;;;;;;;;5053900;28;8855;-80
2023/11/14 09:46:32;;;;;;;;;1.00;1.00;;;;;;;;5053149;28;8844;-79
2023/11/14 09:49:00;;;;;;;;;3.75;2.75;;;;;;;;5050782;28;8859;-80
2023/11/14 09:51:31;;;;;;;;;3.00;3.00;;;;;;;;5049989;28;8872;-81
2023/11/14 09:53:58;;;;;;;;;4.25;4.25;;;;;;;;5051458;28;8848;-80
2023/11/14 09:56:26;;;;;;;;;2.25;1.75;;;;;;;;5051041;28;8967;-79
2023/11/14 09:58:55;;;;;;;;;5.25;2.00;;;;;;;;5050304;28;8848;-80
2023/11/14 10:01:23;;;;;;;;;2.25;2.00;;;;;;;;5000231;28;8799;-80
2023/11/14 10:03:51;;;;;;;;;4.25;2.25;;;;;;;;5041815;28;8837;-79
2023/11/14 10:06:18;;;;;;;;;6.75;3.75;;;;;;;;5048379;28;8840;-82
2023/11/14 10:08:47;;;;;;;;;4.00;2.50;;;;;;;;5048623;28;8836;-79
2023/11/14 10:11:14;;;;;;;;;5.50;4.00;;;;;;;;5047886;28;8874;-78
2023/11/14 10:13:42;;;;;;;;;2.50;1.25;;;;;;;;5048929;28;8836;-79
2023/11/14 10:16:18;;;;;;;;;3.75;2.00;;;;;;;;5048214;28;9371;-81
2023/11/14 10:18:46;;;;;;;;;3.00;2.00;;;;;;;;5047748;28;8840;-78
2023/11/14 10:21:24;;;;;;;;;3.00;2.00;;;;;;;;5043931;28;9006;-79
2023/11/14 10:23:53;;;;;;;;;3.25;2.00;;;;;;;;5048044;28;8852;-81
2023/11/14 10:26:20;;;;;;;;;3.25;3.00;;;;;;;;5049090;28;8869;-80
2023/11/14 10:28:55;;;;;;;;;3.50;2.00;;;;;;;;5048856;28;8955;-80
2023/11/14 10:31:36;;;;;;;;;2.00;2.00;;;;;;;;5052795;28;8781;-76
2023/11/14 10:34:04;;;;;;;;;2.50;2.00;;;;;;;;5063394;28;8898;-82
2023/11/14 10:36:42;;;;;;;;;5.00;3.00;;;;;;;;5049149;28;8870;-79
2023/11/14 10:39:10;;;;;;;;;2.25;1.00;;;;;;;;5036621;28;8852;-81
2023/11/14 10:41:38;;;;;;;;;2.00;2.00;;;;;;;;5047544;28;8852;-81
2023/11/14 10:44:09;;;;;;;;;3.00;2.50;;;;;;;;5048232;28;8860;-79
2023/11/14 10:46:36;;;;;;;;;1.75;1.75;;;;;;;;5046814;28;8899;-80
2023/11/14 10:49:08;;;;;;;;;3.00;1.75;;;;;;;;5040377;28;8868;-81
2023/11/14 10:51:37;;;;;;;;;2.25;2.25;;;;;;;;5044799;28;8943;-81
2023/11/14 10:54:06;;;;;;;;;1.00;1.00;;;;;;;;5047970;28;8899;-79
2023/11/14 10:56:36;;;;;;;;;3.75;1.00;;;;;;;;5048095;28;8868;-81
2023/11/14 10:59:04;;;;;;;;;5.50;1.00;;;;;;;;5048363;28;8872;-82
2023/11/14 11:01:34;;;;;;;;;2.00;1.50;;;;;;;;5048673;28;8788;-79
2023/11/14 11:04:02;;;;;;;;;1.50;1.50;;;;;;;;5051454;28;8886;-82
2023/11/14 11:06:31;;;;;;;;;1.75;1.75;;;;;;;;5048267;28;8825;-78
2023/11/14 11:09:05;;;;;;;;;0.25;0.25;;;;;;;;5047375;28;8859;-81
2023/11/14 11:11:37;;;;;;;;;2.25;1.25;;;;;;;;5038648;28;9708;-79
2023/11/14 11:14:08;;;;;;;;;4.00;2.00;;;;;;;;5049048;28;8994;-80
2023/11/14 11:16:46;;;;;;;;;3.00;1.25;;;;;;;;5049150;28;8867;-78
2023/11/14 11:19:24;;;;;;;;;0.75;0.75;;;;;;;;5049489;28;8913;-76
2023/11/14 11:22:03;;;;;;;;;1.50;1.00;;;;;;;;5047927;28;8828;-81
2023/11/14 11:24:33;;;;;;;;;2.00;1.00;;;;;;;;5040675;28;8852;-77
2023/11/14 11:27:20;;;;;;;;;1.50;1.50;;;;;;;;5048794;28;8916;-77
2023/11/14 11:29:55;;;;;;;;;1.00;1.00;;;;;;;;5050912;28;8852;-77
2023/11/14 11:32:34;;;;;;;;;1.00;1.00;;;;;;;;5050266;28;8805;-78
2023/11/14 11:35:34;;;;;;;;;1.50;0.00;;;;;;;;5054053;28;8840;-81
2023/11/14 11:38:09;;;;;;;;;1.00;1.00;;;;;;;;5039457;28;9714;-84
2023/11/14 11:40:37;;;;;;;;;0.75;0.75;;;;;;;;5044246;28;8864;-81
2023/11/14 11:43:21;;;;;;;;;0.25;0.25;;;;;;;;5052396;28;8863;-79
2023/11/14 11:45:50;;;;;;;;;2.50;1.00;;;;;;;;5053011;28;8809;-79
2023/11/14 11:48:31;;;;;;;;;1.50;1.50;;;;;;;;5051669;28;8917;-79
2023/11/14 11:51:19;;;;;;;;;2.25;0.75;;;;;;;;5050853;28;8836;-78
2023/11/14 11:53:49;;;;;;;;;2.50;1.00;;;;;;;;5046788;28;8852;-78
2023/11/14 11:56:40;;;;;;;;;2.00;0.00;;;;;;;;5051292;28;8820;-79
2023/11/14 11:59:09;;;;;;;;;1.75;0.25;;;;;;;;5050443;28;9755;-78
2023/11/14 12:01:48;;;;;;;;;1.50;1.00;;;;;;;;5050669;28;8803;-78
2023/11/14 12:04:17;;;;;;;;;0.00;0.00;;;;;;;;5047346;28;8875;-78
2023/11/14 12:06:44;;;;;;;;;1.00;0.00;;;;;;;;5050822;28;8864;-78
2023/11/14 12:09:12;;;;;;;;;2.50;1.00;;;;;;;;5042935;28;8828;-78
2023/11/14 12:11:40;;;;;;;;;1.00;1.00;;;;;;;;5050610;28;8852;-78
2023/11/14 12:14:09;;;;;;;;;0.00;0.00;;;;;;;;5050567;28;8848;-78
2023/11/14 12:16:38;;;;;;;;;1.75;0.00;;;;;;;;5050928;28;8848;-79
2023/11/14 12:19:05;;;;;;;;;0.25;0.25;;;;;;;;5048796;28;8928;-79
2023/11/14 12:21:33;;;;;;;;;0.00;0.00;;;;;;;;5047053;28;8969;-79
2023/11/14 12:24:10;;;;;;;;;1.00;1.00;;;;;;;;5051730;28;8872;-82
2023/11/14 12:26:49;;;;;;;;;3.00;1.00;;;;;;;;5051809;28;8828;-82
2023/11/14 12:29:19;;;;;;;;;0.25;0.25;;;;;;;;5049570;28;8875;-81
2023/11/14 12:31:46;;;;;;;;;2.75;1.00;;;;;;;;5051280;28;8792;-81
2023/11/14 12:34:23;;;;;;;;;1.50;1.50;;;;;;;;5051892;28;8856;-82
2023/11/14 12:36:51;;;;;;;;;1.75;1.75;;;;;;;;5051426;28;8986;-78
2023/11/14 12:39:19;;;;;;;;;2.00;1.25;;;;;;;;5052569;28;8884;-81
2023/11/14 12:41:47;;;;;;;;;3.25;2.00;;;;;;;;5050956;28;8967;-78
2023/11/14 12:44:16;;;;;;;;;0.50;0.50;;;;;;;;5049544;28;8971;-79
2023/11/14 12:46:46;;;;;;;;;2.00;2.00;;;;;;;;5049942;28;8999;-79
2023/11/14 12:49:16;;;;;;;;;1.00;1.00;;;;;;;;5050467;28;8856;-78
2023/11/14 12:51:44;;;;;;;;;0.00;0.00;;;;;;;;5049621;28;9664;-76
2023/11/14 12:54:12;;;;;;;;;1.50;1.50;;;;;;;;5051721;28;8872;-77
2023/11/14 12:56:39;;;;;;;;;1.25;1.00;;;;;;;;5051234;28;8836;-79
2023/11/14 12:59:07;;;;;;;;;1.50;1.00;;;;;;;;5049863;28;8868;-79
2023/11/14 13:01:37;;;;;;;;;0.25;0.25;;;;;;;;5049548;28;8804;-79
2023/11/14 13:04:06;;;;;;;;;1.25;1.25;;;;;;;;5051018;28;8870;-78
2023/11/14 13:06:34;;;;;;;;;1.25;1.25;;;;;;;;5052497;28;8840;-77
2023/11/14 13:09:02;;;;;;;;;1.00;1.00;;;;;;;;5052400;28;8867;-77
2023/11/14 13:11:31;;;;;;;;;7.00;2.00;;;;;;;;5052699;28;8837;-78
2023/11/14 13:13:59;;;;;;;;;3.00;3.00;;;;;;;;5052305;28;8844;-79
2023/11/14 13:16:26;;;;;;;;;2.25;2.00;;;;;;;;5052958;28;8860;-78
2023/11/14 13:18:55;;;;;;;;;2.00;2.00;;;;;;;;5052622;28;8852;-79
2023/11/14 13:21:23;;;;;;;;;3.75;1.00;;;;;;;;5049148;28;8836;-77
2023/11/14 13:23:53;;;;;;;;;2.75;2.00;;;;;;;;5052582;28;8856;-77
2023/11/14 13:26:25;;;;;;;;;2.75;2.75;;;;;;;;5051738;28;8966;-78
2023/11/14 13:28:52;;;;;;;;;4.00;2.00;;;;;;;;5049025;28;8825;-78
2023/11/14 13:31:20;;;;;;;;;2.75;1.00;;;;;;;;5050738;28;8801;-78
2023/11/14 13:33:47;;;;;;;;;4.00;2.50;;;;;;;;5046761;28;8866;-77
2023/11/14 13:36:18;;;;;;;;;1.00;1.00;;;;;;;;5040418;28;8868;-78
2023/11/14 13:38:45;;;;;;;;;2.00;2.00;;;;;;;;5047769;28;9650;-78
2023/11/14 13:41:13;;;;;;;;;2.00;2.00;;;;;;;;5049225;28;8889;-77
2023/11/14 13:43:40;;;;;;;;;2.00;2.00;;;;;;;;5048401;28;8910;-78
2023/11/14 13:46:08;;;;;;;;;1.00;1.00;;;;;;;;5048451;28;8840;-77
2023/11/14 13:48:35;;;;;;;;;4.00;2.00;;;;;;;;5048685;28;8864;-79
2023/11/14 13:51:03;;;;;;;;;1.75;1.75;;;;;;;;5048455;28;8903;-78
2023/11/14 13:53:31;;;;;;;;;1.00;1.00;;;;;;;;5048608;28;8958;-77
2023/11/14 13:55:59;;;;;;;;;1.50;1.50;;;;;;;;5047250;28;8978;-77
2023/11/14 13:58:27;;;;;;;;;3.50;2.00;;;;;;;;5048682;28;8836;-78
2023/11/14 14:00:56;;;;;;;;;1.75;1.75;;;;;;;;5047780;28;9678;-78
2023/11/14 14:03:23;;;;;;;;;1.75;1.75;;;;;;;;5048336;28;9635;-77
2023/11/14 14:05:50;;;;;;;;;1.00;1.00;;;;;;;;5047737;28;9019;-76
2023/11/14 14:08:21;;;;;;;;;2.00;2.00;;;;;;;;5048605;28;8866;-78
2023/11/14 14:10:53;;;;;;;;;2.00;1.00;;;;;;;;5048853;28;8856;-79
2023/11/14 14:13:20;;;;;;;;;1.75;1.75;;;;;;;;5048510;28;8978;-78
2023/11/14 14:15:50;;;;;;;;;2.00;2.00;;;;;;;;5048615;28;8871;-77
2023/11/14 14:18:20;;;;;;;;;1.00;1.00;;;;;;;;5040126;28;8856;-78
2023/11/14 14:20:50;;;;;;;;;1.00;1.00;;;;;;;;5048176;28;8836;-77
2023/11/14 14:23:21;;;;;;;;;1.50;1.50;;;;;;;;5048807;28;9697;-79
2023/11/14 14:25:52;;;;;;;;;1.00;1.00;;;;;;;;5047840;28;8853;-78
2023/11/14 14:28:20;;;;;;;;;8.75;8.75;;;;;;;;5036394;28;9759;-79
2023/11/14 14:30:49;;;;;;;;;5.00;4.00;;;;;;;;5046601;28;8960;-79
2023/11/14 14:33:18;;;;;;;;;3.00;1.00;;;;;;;;5047108;28;8837;-77
2023/11/14 14:35:45;;;;;;;;;2.50;2.00;;;;;;;;5048327;28;8975;-78
2023/11/14 14:38:13;;;;;;;;;1.25;1.25;;;;;;;;5047352;28;8847;-77
2023/11/14 14:40:41;;;;;;;;;5.25;2.00;;;;;;;;5035611;28;9662;-79
2023/11/14 14:43:09;;;;;;;;;2.25;2.25;;;;;;;;5047397;28;8868;-78
2023/11/14 14:45:36;;;;;;;;;2.00;2.00;;;;;;;;5047877;28;8866;-77
2023/11/14 14:48:04;;;;;;;;;1.50;1.50;;;;;;;;5047369;28;8868;-77
2023/11/14 14:50:31;;;;;;;;;3.00;1.25;;;;;;;;5048458;28;8848;-78
2023/11/14 14:52:58;;;;;;;;;2.00;2.00;;;;;;;;5045991;28;8947;-78
2023/11/14 14:55:26;;;;;;;;;3.25;3.25;;;;;;;;5048355;28;8852;-78
2023/11/14 14:57:58;;;;;;;;;0.00;0.00;;;;;;;;5048371;28;8825;-77
2023/11/14 15:00:26;;;;;;;;;1.00;1.00;;;;;;;;5048616;28;8836;-79
2023/11/14 15:02:53;;;;;;;;;3.75;1.00;;;;;;;;5047781;28;8860;-78
2023/11/14 15:05:22;;;;;;;;;0.25;0.25;;;;;;;;5050437;28;8893;-75
2023/11/14 15:07:53;;;;;;;;;1.00;1.00;;;;;;;;5049121;28;8890;-77